Terminal Aerodrome Forecast
Issued by NWS

Current Version | Previous Version | Text Only | Print | Product List | Glossary On
Versions: 1 2 3 4 5 6 7 8 9 10 11 12
842
FTUS41 KPBZ 231723
TAFZZV
TAF
KZZV 231723Z 2318/2418 14012G20KT P6SM BKN150
     FM240000 13006KT P6SM -SHRA OVC060
     FM241200 09009KT P6SM -SHRA OVC030
     FM241500 10009KT 3SM -SHRA OVC015=

USA.gov is the U.S. government's official web portal to all federal, state and local government web resources and services.